sensor_id;sensor_type;location;lat;lon;timestamp;temperature;humidity
28823;DHT22;15961;54.678;9.110;2023-03-23T00:01:06;9.60;99.90
28823;DHT22;15961;54.678;9.110;2023-03-23T00:03:32;9.60;99.90
28823;DHT22;15961;54.678;9.110;2023-03-23T00:05:58;9.60;99.90
28823;DHT22;15961;54.678;9.110;2023-03-23T00:08:32;9.60;99.90
28823;DHT22;15961;54.678;9.110;2023-03-23T00:10:58;9.70;99.90
28823;DHT22;15961;54.678;9.110;2023-03-23T00:13:28;9.70;99.90
28823;DHT22;15961;54.678;9.110;2023-03-23T00:15:53;9.70;99.90
28823;DHT22;15961;54.678;9.110;2023-03-23T00:18:20;9.70;99.90
28823;DHT22;15961;54.678;9.110;2023-03-23T00:20:55;9.70;99.90
28823;DHT22;15961;54.678;9.110;2023-03-23T00:23:25;9.80;99.90
28823;DHT22;15961;54.678;9.110;2023-03-23T00:25:55;9.80;99.90
28823;DHT22;15961;54.678;9.110;2023-03-23T00:28:25;9.80;99.90
28823;DHT22;15961;54.678;9.110;2023-03-23T00:30:58;9.80;99.90
28823;DHT22;15961;54.678;9.110;2023-03-23T00:33:26;9.80;99.90
28823;DHT22;15961;54.678;9.110;2023-03-23T00:35:52;9.80;99.90
28823;DHT22;15961;54.678;9.110;2023-03-23T00:38:20;9.80;99.90
28823;DHT22;15961;54.678;9.110;2023-03-23T00:40:46;9.80;99.90
28823;DHT22;15961;54.678;9.110;2023-03-23T00:43:13;9.80;99.90
28823;DHT22;15961;54.678;9.110;2023-03-23T00:45:39;9.80;99.90
28823;DHT22;15961;54.678;9.110;2023-03-23T00:48:04;9.80;99.90
28823;DHT22;15961;54.678;9.110;2023-03-23T00:50:31;9.80;99.90
28823;DHT22;15961;54.678;9.110;2023-03-23T00:52:57;9.70;99.90
28823;DHT22;15961;54.678;9.110;2023-03-23T00:55:23;9.70;99.90
28823;DHT22;15961;54.678;9.110;2023-03-23T00:57:49;9.60;99.90
28823;DHT22;15961;54.678;9.110;2023-03-23T01:00:17;9.60;99.90
28823;DHT22;15961;54.678;9.110;2023-03-23T01:02:44;9.50;99.90
28823;DHT22;15961;54.678;9.110;2023-03-23T01:05:11;9.50;99.90
28823;DHT22;15961;54.678;9.110;2023-03-23T01:07:36;9.40;99.90
28823;DHT22;15961;54.678;9.110;2023-03-23T01:10:03;9.50;99.90
28823;DHT22;15961;54.678;9.110;2023-03-23T01:12:29;9.50;99.90
28823;DHT22;15961;54.678;9.110;2023-03-23T01:14:55;9.40;99.90
28823;DHT22;15961;54.678;9.110;2023-03-23T01:17:21;9.40;99.90
28823;DHT22;15961;54.678;9.110;2023-03-23T01:19:46;9.40;99.90
28823;DHT22;15961;54.678;9.110;2023-03-23T01:22:12;9.30;99.90
28823;DHT22;15961;54.678;9.110;2023-03-23T01:24:38;9.30;99.90
28823;DHT22;15961;54.678;9.110;2023-03-23T01:27:03;9.30;99.90
28823;DHT22;15961;54.678;9.110;2023-03-23T01:29:33;9.20;99.90
28823;DHT22;15961;54.678;9.110;2023-03-23T01:31:59;9.20;99.90
28823;DHT22;15961;54.678;9.110;2023-03-23T01:34:24;9.20;99.90
28823;DHT22;15961;54.678;9.110;2023-03-23T01:36:50;9.20;99.90
28823;DHT22;15961;54.678;9.110;2023-03-23T01:39:15;9.20;99.90
28823;DHT22;15961;54.678;9.110;2023-03-23T01:41:41;9.20;99.90
28823;DHT22;15961;54.678;9.110;2023-03-23T01:46:43;9.20;99.90
28823;DHT22;15961;54.678;9.110;2023-03-23T01:49:13;9.20;99.90
28823;DHT22;15961;54.678;9.110;2023-03-23T01:51:46;9.20;99.90
28823;DHT22;15961;54.678;9.110;2023-03-23T01:54:15;9.20;99.90
28823;DHT22;15961;54.678;9.110;2023-03-23T01:56:59;9.20;99.90
28823;DHT22;15961;54.678;9.110;2023-03-23T01:59:25;9.10;99.90
28823;DHT22;15961;54.678;9.110;2023-03-23T02:01:53;9.10;99.90
28823;DHT22;15961;54.678;9.110;2023-03-23T02:04:20;9.10;99.90
28823;DHT22;15961;54.678;9.110;2023-03-23T02:06:46;9.10;99.90
28823;DHT22;15961;54.678;9.110;2023-03-23T02:09:13;9.10;99.90
28823;DHT22;15961;54.678;9.110;2023-03-23T02:11:39;9.10;99.90
28823;DHT22;15961;54.678;9.110;2023-03-23T02:14:05;9.00;99.90
28823;DHT22;15961;54.678;9.110;2023-03-23T02:22:41;9.10;99.90
28823;DHT22;15961;54.678;9.110;2023-03-23T02:28:16;9.00;99.90
28823;DHT22;15961;54.678;9.110;2023-03-23T02:31:05;9.00;99.90
28823;DHT22;15961;54.678;9.110;2023-03-23T02:36:22;9.00;99.90
28823;DHT22;15961;54.678;9.110;2023-03-23T02:39:08;9.00;99.90
28823;DHT22;15961;54.678;9.110;2023-03-23T02:41:45;8.90;99.90
28823;DHT22;15961;54.678;9.110;2023-03-23T02:44:13;8.90;99.90
28823;DHT22;15961;54.678;9.110;2023-03-23T02:46:41;8.80;99.90
28823;DHT22;15961;54.678;9.110;2023-03-23T02:49:08;8.70;99.90
28823;DHT22;15961;54.678;9.110;2023-03-23T02:51:36;8.70;99.90
28823;DHT22;15961;54.678;9.110;2023-03-23T02:54:04;8.60;99.90
28823;DHT22;15961;54.678;9.110;2023-03-23T02:56:31;8.60;99.90
28823;DHT22;15961;54.678;9.110;2023-03-23T02:58:58;8.60;99.90
28823;DHT22;15961;54.678;9.110;2023-03-23T03:04:00;8.60;99.90
28823;DHT22;15961;54.678;9.110;2023-03-23T03:09:15;8.60;99.90
28823;DHT22;15961;54.678;9.110;2023-03-23T03:11:48;8.60;99.90
28823;DHT22;15961;54.678;9.110;2023-03-23T03:14:26;8.60;99.90
28823;DHT22;15961;54.678;9.110;2023-03-23T03:17:10;8.60;99.90
28823;DHT22;15961;54.678;9.110;2023-03-23T03:19:45;8.60;99.90
28823;DHT22;15961;54.678;9.110;2023-03-23T03:22:12;8.60;99.90
28823;DHT22;15961;54.678;9.110;2023-03-23T03:24:38;8.50;99.90
28823;DHT22;15961;54.678;9.110;2023-03-23T03:27:11;8.50;99.90
28823;DHT22;15961;54.678;9.110;2023-03-23T03:29:40;8.50;99.90
28823;DHT22;15961;54.678;9.110;2023-03-23T03:32:12;8.50;99.90
28823;DHT22;15961;54.678;9.110;2023-03-23T03:34:38;8.50;99.90
28823;DHT22;15961;54.678;9.110;2023-03-23T03:37:04;8.50;99.90
28823;DHT22;15961;54.678;9.110;2023-03-23T03:39:35;8.50;99.90
28823;DHT22;15961;54.678;9.110;2023-03-23T03:42:01;8.50;99.90
28823;DHT22;15961;54.678;9.110;2023-03-23T03:44:27;8.50;99.90
28823;DHT22;15961;54.678;9.110;2023-03-23T03:46:53;8.50;99.90
28823;DHT22;15961;54.678;9.110;2023-03-23T03:49:18;8.50;99.90
28823;DHT22;15961;54.678;9.110;2023-03-23T03:51:44;8.60;99.90
28823;DHT22;15961;54.678;9.110;2023-03-23T03:54:11;8.60;99.90
28823;DHT22;15961;54.678;9.110;2023-03-23T03:56:37;8.60;99.90
28823;DHT22;15961;54.678;9.110;2023-03-23T03:59:06;8.50;99.90
28823;DHT22;15961;54.678;9.110;2023-03-23T04:01:33;8.50;99.90
28823;DHT22;15961;54.678;9.110;2023-03-23T04:03:59;8.50;99.90
28823;DHT22;15961;54.678;9.110;2023-03-23T04:06:25;8.50;99.90
28823;DHT22;15961;54.678;9.110;2023-03-23T04:08:54;8.50;99.90
28823;DHT22;15961;54.678;9.110;2023-03-23T04:11:20;8.50;99.90
28823;DHT22;15961;54.678;9.110;2023-03-23T04:13:46;8.50;99.90
28823;DHT22;15961;54.678;9.110;2023-03-23T04:16:11;8.40;99.90
28823;DHT22;15961;54.678;9.110;2023-03-23T04:18:37;8.50;99.90
28823;DHT22;15961;54.678;9.110;2023-03-23T04:21:03;8.50;99.90
28823;DHT22;15961;54.678;9.110;2023-03-23T04:23:30;8.50;99.90
28823;DHT22;15961;54.678;9.110;2023-03-23T04:25:58;8.50;99.90
28823;DHT22;15961;54.678;9.110;2023-03-23T04:28:25;8.40;99.90
28823;DHT22;15961;54.678;9.110;2023-03-23T04:30:51;8.50;99.90
28823;DHT22;15961;54.678;9.110;2023-03-23T04:33:22;8.50;99.90
28823;DHT22;15961;54.678;9.110;2023-03-23T04:35:53;8.50;99.90
28823;DHT22;15961;54.678;9.110;2023-03-23T04:38:20;8.50;99.90
28823;DHT22;15961;54.678;9.110;2023-03-23T04:40:47;8.50;99.90
28823;DHT22;15961;54.678;9.110;2023-03-23T04:43:13;8.60;99.90
28823;DHT22;15961;54.678;9.110;2023-03-23T04:45:40;8.60;99.90
28823;DHT22;15961;54.678;9.110;2023-03-23T04:48:10;8.60;99.90
28823;DHT22;15961;54.678;9.110;2023-03-23T04:50:36;8.60;99.90
28823;DHT22;15961;54.678;9.110;2023-03-23T04:53:04;8.70;99.90
28823;DHT22;15961;54.678;9.110;2023-03-23T04:55:32;8.70;99.90
28823;DHT22;15961;54.678;9.110;2023-03-23T04:58:02;8.70;99.90
28823;DHT22;15961;54.678;9.110;2023-03-23T05:00:31;8.70;99.90
28823;DHT22;15961;54.678;9.110;2023-03-23T05:02:58;8.70;99.90
28823;DHT22;15961;54.678;9.110;2023-03-23T05:05:24;8.80;99.90
28823;DHT22;15961;54.678;9.110;2023-03-23T05:07:50;8.80;99.90
28823;DHT22;15961;54.678;9.110;2023-03-23T05:10:16;8.80;99.90
28823;DHT22;15961;54.678;9.110;2023-03-23T05:12:43;8.80;99.90
28823;DHT22;15961;54.678;9.110;2023-03-23T05:15:10;8.80;99.90
28823;DHT22;15961;54.678;9.110;2023-03-23T05:17:36;8.90;99.90
28823;DHT22;15961;54.678;9.110;2023-03-23T05:20:04;8.90;99.90
28823;DHT22;15961;54.678;9.110;2023-03-23T05:22:32;8.90;99.90
28823;DHT22;15961;54.678;9.110;2023-03-23T05:24:59;8.90;99.90
28823;DHT22;15961;54.678;9.110;2023-03-23T05:27:24;8.90;99.90
28823;DHT22;15961;54.678;9.110;2023-03-23T05:29:53;8.90;99.90
28823;DHT22;15961;54.678;9.110;2023-03-23T05:32:19;9.00;99.90
28823;DHT22;15961;54.678;9.110;2023-03-23T05:34:46;9.00;99.90
28823;DHT22;15961;54.678;9.110;2023-03-23T05:37:12;8.90;99.90
28823;DHT22;15961;54.678;9.110;2023-03-23T05:39:39;9.00;99.90
28823;DHT22;15961;54.678;9.110;2023-03-23T05:42:05;9.00;99.90
28823;DHT22;15961;54.678;9.110;2023-03-23T05:44:31;8.90;99.90
28823;DHT22;15961;54.678;9.110;2023-03-23T05:46:57;8.90;99.90
28823;DHT22;15961;54.678;9.110;2023-03-23T05:49:22;8.80;99.90
28823;DHT22;15961;54.678;9.110;2023-03-23T05:51:49;8.80;99.90
28823;DHT22;15961;54.678;9.110;2023-03-23T05:54:15;8.80;99.90
28823;DHT22;15961;54.678;9.110;2023-03-23T05:56:41;8.80;99.90
28823;DHT22;15961;54.678;9.110;2023-03-23T05:59:08;8.80;99.90
28823;DHT22;15961;54.678;9.110;2023-03-23T06:01:34;8.80;99.90
28823;DHT22;15961;54.678;9.110;2023-03-23T06:04:00;8.80;99.90
28823;DHT22;15961;54.678;9.110;2023-03-23T06:06:27;8.90;99.90
28823;DHT22;15961;54.678;9.110;2023-03-23T06:08:53;8.90;99.90
28823;DHT22;15961;54.678;9.110;2023-03-23T06:11:19;8.90;99.90
28823;DHT22;15961;54.678;9.110;2023-03-23T06:13:45;8.90;99.90
28823;DHT22;15961;54.678;9.110;2023-03-23T06:16:10;9.00;99.90
28823;DHT22;15961;54.678;9.110;2023-03-23T06:18:36;9.00;99.90
28823;DHT22;15961;54.678;9.110;2023-03-23T06:21:03;9.10;99.90
28823;DHT22;15961;54.678;9.110;2023-03-23T06:23:29;9.10;99.90
28823;DHT22;15961;54.678;9.110;2023-03-23T06:25:58;9.20;99.90
28823;DHT22;15961;54.678;9.110;2023-03-23T06:28:24;9.20;99.90
28823;DHT22;15961;54.678;9.110;2023-03-23T06:30:50;9.30;99.90
28823;DHT22;15961;54.678;9.110;2023-03-23T06:33:16;9.30;99.90
28823;DHT22;15961;54.678;9.110;2023-03-23T06:35:42;9.40;99.90
28823;DHT22;15961;54.678;9.110;2023-03-23T06:38:08;9.40;99.90
28823;DHT22;15961;54.678;9.110;2023-03-23T06:40:34;9.40;99.90
28823;DHT22;15961;54.678;9.110;2023-03-23T06:43:01;9.50;99.90
28823;DHT22;15961;54.678;9.110;2023-03-23T06:45:27;9.50;99.90
28823;DHT22;15961;54.678;9.110;2023-03-23T06:47:52;9.50;99.90
28823;DHT22;15961;54.678;9.110;2023-03-23T06:50:18;9.50;99.90
28823;DHT22;15961;54.678;9.110;2023-03-23T06:52:48;9.50;99.90
28823;DHT22;15961;54.678;9.110;2023-03-23T06:55:14;9.70;99.90
28823;DHT22;15961;54.678;9.110;2023-03-23T06:57:41;9.70;99.90
28823;DHT22;15961;54.678;9.110;2023-03-23T07:00:08;9.70;99.90
28823;DHT22;15961;54.678;9.110;2023-03-23T07:02:37;9.80;99.90
28823;DHT22;15961;54.678;9.110;2023-03-23T07:05:02;9.70;99.90
28823;DHT22;15961;54.678;9.110;2023-03-23T07:07:29;9.80;99.90
28823;DHT22;15961;54.678;9.110;2023-03-23T07:09:54;9.80;99.90
28823;DHT22;15961;54.678;9.110;2023-03-23T07:12:20;9.80;99.90
28823;DHT22;15961;54.678;9.110;2023-03-23T07:14:47;9.80;99.90
28823;DHT22;15961;54.678;9.110;2023-03-23T07:17:12;9.70;99.90
28823;DHT22;15961;54.678;9.110;2023-03-23T07:19:38;9.70;99.90
28823;DHT22;15961;54.678;9.110;2023-03-23T07:22:05;9.80;99.90
28823;DHT22;15961;54.678;9.110;2023-03-23T07:24:30;9.70;99.90
28823;DHT22;15961;54.678;9.110;2023-03-23T07:26:56;9.70;99.90
28823;DHT22;15961;54.678;9.110;2023-03-23T07:29:22;9.70;99.90
28823;DHT22;15961;54.678;9.110;2023-03-23T07:31:47;9.80;99.90
28823;DHT22;15961;54.678;9.110;2023-03-23T07:34:13;9.70;99.90
28823;DHT22;15961;54.678;9.110;2023-03-23T07:36:38;9.70;99.90
28823;DHT22;15961;54.678;9.110;2023-03-23T07:39:05;9.70;99.90
28823;DHT22;15961;54.678;9.110;2023-03-23T07:41:33;9.70;99.90
28823;DHT22;15961;54.678;9.110;2023-03-23T07:43:58;9.70;99.90
28823;DHT22;15961;54.678;9.110;2023-03-23T07:46:24;9.90;99.90
28823;DHT22;15961;54.678;9.110;2023-03-23T07:48:50;9.90;99.90
28823;DHT22;15961;54.678;9.110;2023-03-23T07:51:15;9.90;99.90
28823;DHT22;15961;54.678;9.110;2023-03-23T07:53:44;10.00;99.90
28823;DHT22;15961;54.678;9.110;2023-03-23T07:56:11;10.00;99.90
28823;DHT22;15961;54.678;9.110;2023-03-23T07:58:37;10.00;99.90
28823;DHT22;15961;54.678;9.110;2023-03-23T08:01:03;10.00;99.90
28823;DHT22;15961;54.678;9.110;2023-03-23T08:03:29;10.00;99.90
28823;DHT22;15961;54.678;9.110;2023-03-23T08:05:58;10.00;99.90
28823;DHT22;15961;54.678;9.110;2023-03-23T08:08:24;10.00;99.90
28823;DHT22;15961;54.678;9.110;2023-03-23T08:10:50;9.90;99.90
28823;DHT22;15961;54.678;9.110;2023-03-23T08:13:16;10.00;99.90
28823;DHT22;15961;54.678;9.110;2023-03-23T08:15:41;10.00;99.90
28823;DHT22;15961;54.678;9.110;2023-03-23T08:18:08;10.20;99.90
28823;DHT22;15961;54.678;9.110;2023-03-23T08:20:34;10.40;99.90
28823;DHT22;15961;54.678;9.110;2023-03-23T08:23:01;10.40;99.90
28823;DHT22;15961;54.678;9.110;2023-03-23T08:25:28;10.40;99.90
28823;DHT22;15961;54.678;9.110;2023-03-23T08:27:56;10.40;99.90
28823;DHT22;15961;54.678;9.110;2023-03-23T08:30:22;10.50;99.90
28823;DHT22;15961;54.678;9.110;2023-03-23T08:32:49;10.60;99.90
28823;DHT22;15961;54.678;9.110;2023-03-23T08:35:16;10.40;99.90
28823;DHT22;15961;54.678;9.110;2023-03-23T08:37:42;10.20;99.90
28823;DHT22;15961;54.678;9.110;2023-03-23T08:40:10;10.10;99.90
28823;DHT22;15961;54.678;9.110;2023-03-23T08:42:37;10.10;99.90
28823;DHT22;15961;54.678;9.110;2023-03-23T08:45:07;10.10;99.90
28823;DHT22;15961;54.678;9.110;2023-03-23T08:47:34;10.10;99.90
28823;DHT22;15961;54.678;9.110;2023-03-23T08:50:01;10.20;99.90
28823;DHT22;15961;54.678;9.110;2023-03-23T08:52:27;10.20;99.90
28823;DHT22;15961;54.678;9.110;2023-03-23T08:54:54;10.00;99.90
28823;DHT22;15961;54.678;9.110;2023-03-23T08:57:20;10.00;99.90
28823;DHT22;15961;54.678;9.110;2023-03-23T08:59:45;10.00;99.90
28823;DHT22;15961;54.678;9.110;2023-03-23T09:02:12;9.90;99.90
28823;DHT22;15961;54.678;9.110;2023-03-23T09:04:38;9.80;99.90
28823;DHT22;15961;54.678;9.110;2023-03-23T09:07:04;9.90;99.90
28823;DHT22;15961;54.678;9.110;2023-03-23T09:09:31;9.90;99.90
28823;DHT22;15961;54.678;9.110;2023-03-23T09:11:59;10.00;99.90
28823;DHT22;15961;54.678;9.110;2023-03-23T09:14:25;10.00;99.90
28823;DHT22;15961;54.678;9.110;2023-03-23T09:16:50;10.00;99.90
28823;DHT22;15961;54.678;9.110;2023-03-23T09:19:16;10.00;99.90
28823;DHT22;15961;54.678;9.110;2023-03-23T09:21:42;10.00;99.90
28823;DHT22;15961;54.678;9.110;2023-03-23T09:24:07;10.10;99.90
28823;DHT22;15961;54.678;9.110;2023-03-23T09:26:33;10.10;99.90
28823;DHT22;15961;54.678;9.110;2023-03-23T09:28:58;10.20;99.90
28823;DHT22;15961;54.678;9.110;2023-03-23T09:31:24;10.30;99.90
28823;DHT22;15961;54.678;9.110;2023-03-23T09:33:52;10.30;99.90
28823;DHT22;15961;54.678;9.110;2023-03-23T09:36:18;10.30;99.90
28823;DHT22;15961;54.678;9.110;2023-03-23T09:38:46;10.20;99.90
28823;DHT22;15961;54.678;9.110;2023-03-23T09:44:29;10.30;99.90
28823;DHT22;15961;54.678;9.110;2023-03-23T09:49:44;10.40;99.90
28823;DHT22;15961;54.678;9.110;2023-03-23T09:52:18;10.60;99.90
28823;DHT22;15961;54.678;9.110;2023-03-23T09:54:49;10.90;99.90
28823;DHT22;15961;54.678;9.110;2023-03-23T09:57:38;10.80;99.90
28823;DHT22;15961;54.678;9.110;2023-03-23T10:00:24;11.00;99.90
28823;DHT22;15961;54.678;9.110;2023-03-23T10:03:12;10.90;99.90
28823;DHT22;15961;54.678;9.110;2023-03-23T10:05:46;10.80;99.90
28823;DHT22;15961;54.678;9.110;2023-03-23T10:08:18;10.80;99.90
28823;DHT22;15961;54.678;9.110;2023-03-23T10:11:03;10.70;99.90
28823;DHT22;15961;54.678;9.110;2023-03-23T10:13:57;10.70;99.90
28823;DHT22;15961;54.678;9.110;2023-03-23T10:16:39;10.60;99.90
28823;DHT22;15961;54.678;9.110;2023-03-23T10:19:17;10.70;99.90
28823;DHT22;15961;54.678;9.110;2023-03-23T10:21:51;10.70;99.90
28823;DHT22;15961;54.678;9.110;2023-03-23T10:24:22;10.60;99.90
28823;DHT22;15961;54.678;9.110;2023-03-23T10:27:23;10.80;99.90
28823;DHT22;15961;54.678;9.110;2023-03-23T10:29:58;10.80;99.90
28823;DHT22;15961;54.678;9.110;2023-03-23T10:32:46;10.80;99.90
28823;DHT22;15961;54.678;9.110;2023-03-23T10:35:18;10.90;99.90
28823;DHT22;15961;54.678;9.110;2023-03-23T10:37:52;10.90;99.90
28823;DHT22;15961;54.678;9.110;2023-03-23T10:40:19;11.20;99.90
28823;DHT22;15961;54.678;9.110;2023-03-23T10:42:46;11.30;99.90
28823;DHT22;15961;54.678;9.110;2023-03-23T10:45:19;11.50;99.90
28823;DHT22;15961;54.678;9.110;2023-03-23T10:50:28;11.30;99.90
28823;DHT22;15961;54.678;9.110;2023-03-23T10:52:54;11.00;99.90
28823;DHT22;15961;54.678;9.110;2023-03-23T10:55:23;11.20;99.90
28823;DHT22;15961;54.678;9.110;2023-03-23T11:00:27;11.20;99.90
28823;DHT22;15961;54.678;9.110;2023-03-23T11:03:06;11.20;99.90
28823;DHT22;15961;54.678;9.110;2023-03-23T11:05:38;11.30;99.90
28823;DHT22;15961;54.678;9.110;2023-03-23T11:08:16;11.60;99.90
28823;DHT22;15961;54.678;9.110;2023-03-23T11:10:51;11.60;99.90
28823;DHT22;15961;54.678;9.110;2023-03-23T11:13:19;11.60;99.90
28823;DHT22;15961;54.678;9.110;2023-03-23T11:15:46;11.70;99.90
28823;DHT22;15961;54.678;9.110;2023-03-23T11:18:23;11.70;99.90
28823;DHT22;15961;54.678;9.110;2023-03-23T11:20:52;11.60;99.90
28823;DHT22;15961;54.678;9.110;2023-03-23T11:23:30;11.40;99.90
28823;DHT22;15961;54.678;9.110;2023-03-23T11:28:27;11.40;99.90
28823;DHT22;15961;54.678;9.110;2023-03-23T11:30:54;11.80;99.90
28823;DHT22;15961;54.678;9.110;2023-03-23T11:33:21;12.10;99.90
28823;DHT22;15961;54.678;9.110;2023-03-23T11:35:52;12.20;99.90
28823;DHT22;15961;54.678;9.110;2023-03-23T11:38:20;12.20;99.90
28823;DHT22;15961;54.678;9.110;2023-03-23T11:40:51;12.00;99.90
28823;DHT22;15961;54.678;9.110;2023-03-23T11:43:22;12.30;99.90
28823;DHT22;15961;54.678;9.110;2023-03-23T11:46:22;12.40;99.90
28823;DHT22;15961;54.678;9.110;2023-03-23T11:48:58;12.40;99.90
28823;DHT22;15961;54.678;9.110;2023-03-23T11:56:36;12.50;99.90
28823;DHT22;15961;54.678;9.110;2023-03-23T11:59:05;12.50;99.90
28823;DHT22;15961;54.678;9.110;2023-03-23T12:02:01;12.70;99.90
28823;DHT22;15961;54.678;9.110;2023-03-23T12:04:57;12.90;99.90
28823;DHT22;15961;54.678;9.110;2023-03-23T12:10:31;12.70;99.90
28823;DHT22;15961;54.678;9.110;2023-03-23T12:19:35;12.60;99.90
28823;DHT22;15961;54.678;9.110;2023-03-23T12:25:16;12.10;99.90
28823;DHT22;15961;54.678;9.110;2023-03-23T12:27:58;13.00;99.90
28823;DHT22;15961;54.678;9.110;2023-03-23T12:30:32;13.20;99.90
28823;DHT22;15961;54.678;9.110;2023-03-23T12:33:33;13.50;99.90
28823;DHT22;15961;54.678;9.110;2023-03-23T12:36:09;13.80;99.90
28823;DHT22;15961;54.678;9.110;2023-03-23T12:41:41;13.70;99.90
28823;DHT22;15961;54.678;9.110;2023-03-23T12:44:12;13.60;99.90
28823;DHT22;15961;54.678;9.110;2023-03-23T12:47:17;13.80;99.90
28823;DHT22;15961;54.678;9.110;2023-03-23T12:49:58;13.70;99.90
28823;DHT22;15961;54.678;9.110;2023-03-23T12:52:37;13.70;99.90
28823;DHT22;15961;54.678;9.110;2023-03-23T12:57:56;13.80;99.90
28823;DHT22;15961;54.678;9.110;2023-03-23T13:03:07;13.40;99.90
28823;DHT22;15961;54.678;9.110;2023-03-23T13:08:27;12.90;99.90
28823;DHT22;15961;54.678;9.110;2023-03-23T13:10:59;13.30;99.90
28823;DHT22;15961;54.678;9.110;2023-03-23T13:13:49;13.20;99.90
28823;DHT22;15961;54.678;9.110;2023-03-23T13:16:29;12.80;99.90
28823;DHT22;15961;54.678;9.110;2023-03-23T13:22:10;12.60;99.90
28823;DHT22;15961;54.678;9.110;2023-03-23T13:24:42;13.00;99.90
28823;DHT22;15961;54.678;9.110;2023-03-23T13:27:09;12.70;99.90
28823;DHT22;15961;54.678;9.110;2023-03-23T13:29:43;13.00;99.90
28823;DHT22;15961;54.678;9.110;2023-03-23T13:32:16;13.00;99.90
28823;DHT22;15961;54.678;9.110;2023-03-23T13:34:43;13.00;99.90
28823;DHT22;15961;54.678;9.110;2023-03-23T13:37:26;13.60;99.90
28823;DHT22;15961;54.678;9.110;2023-03-23T13:42:32;14.40;99.90
28823;DHT22;15961;54.678;9.110;2023-03-23T13:47:43;13.90;99.90
28823;DHT22;15961;54.678;9.110;2023-03-23T13:50:26;14.00;99.90
28823;DHT22;15961;54.678;9.110;2023-03-23T13:53:13;14.10;99.90
28823;DHT22;15961;54.678;9.110;2023-03-23T13:55:48;14.20;99.90
28823;DHT22;15961;54.678;9.110;2023-03-23T13:58:25;14.30;99.90
28823;DHT22;15961;54.678;9.110;2023-03-23T14:03:39;14.70;99.90
28823;DHT22;15961;54.678;9.110;2023-03-23T14:06:11;14.80;99.90
28823;DHT22;15961;54.678;9.110;2023-03-23T14:08:41;14.60;99.90
28823;DHT22;15961;54.678;9.110;2023-03-23T14:11:26;14.30;99.90
28823;DHT22;15961;54.678;9.110;2023-03-23T14:14:14;14.50;99.90
28823;DHT22;15961;54.678;9.110;2023-03-23T14:16:44;14.60;99.90
28823;DHT22;15961;54.678;9.110;2023-03-23T14:19:21;14.50;99.90
28823;DHT22;15961;54.678;9.110;2023-03-23T14:21:56;14.30;99.90
28823;DHT22;15961;54.678;9.110;2023-03-23T14:24:23;14.30;99.90
28823;DHT22;15961;54.678;9.110;2023-03-23T14:26:49;14.40;99.90
28823;DHT22;15961;54.678;9.110;2023-03-23T14:29:18;14.60;99.90
28823;DHT22;15961;54.678;9.110;2023-03-23T14:31:44;14.60;99.90
28823;DHT22;15961;54.678;9.110;2023-03-23T14:34:18;15.10;99.90
28823;DHT22;15961;54.678;9.110;2023-03-23T14:36:44;15.00;99.90
28823;DHT22;15961;54.678;9.110;2023-03-23T14:39:30;15.00;99.90
28823;DHT22;15961;54.678;9.110;2023-03-23T14:42:05;15.00;99.90
28823;DHT22;15961;54.678;9.110;2023-03-23T14:44:33;15.20;99.90
28823;DHT22;15961;54.678;9.110;2023-03-23T14:47:03;15.30;99.90
28823;DHT22;15961;54.678;9.110;2023-03-23T14:49:38;14.80;99.90
28823;DHT22;15961;54.678;9.110;2023-03-23T14:52:10;14.90;99.90
28823;DHT22;15961;54.678;9.110;2023-03-23T14:54:38;14.40;99.90
28823;DHT22;15961;54.678;9.110;2023-03-23T14:57:25;14.40;99.90
28823;DHT22;15961;54.678;9.110;2023-03-23T14:59:51;14.30;99.90
28823;DHT22;15961;54.678;9.110;2023-03-23T15:02:27;14.20;99.90
28823;DHT22;15961;54.678;9.110;2023-03-23T15:05:00;14.40;99.90
28823;DHT22;15961;54.678;9.110;2023-03-23T15:07:32;14.40;99.90
28823;DHT22;15961;54.678;9.110;2023-03-23T15:09:59;14.20;99.90
28823;DHT22;15961;54.678;9.110;2023-03-23T15:12:27;14.30;99.90
28823;DHT22;15961;54.678;9.110;2023-03-23T15:14:59;14.40;99.90
28823;DHT22;15961;54.678;9.110;2023-03-23T15:17:29;14.10;99.90
28823;DHT22;15961;54.678;9.110;2023-03-23T15:19:56;14.10;99.90
28823;DHT22;15961;54.678;9.110;2023-03-23T15:22:26;13.70;99.90
28823;DHT22;15961;54.678;9.110;2023-03-23T15:24:53;13.70;99.90
28823;DHT22;15961;54.678;9.110;2023-03-23T15:27:33;13.70;99.90
28823;DHT22;15961;54.678;9.110;2023-03-23T15:30:11;13.90;99.90
28823;DHT22;15961;54.678;9.110;2023-03-23T15:32:42;13.80;99.90
28823;DHT22;15961;54.678;9.110;2023-03-23T15:35:15;14.00;99.90
28823;DHT22;15961;54.678;9.110;2023-03-23T15:37:47;13.60;99.90
28823;DHT22;15961;54.678;9.110;2023-03-23T15:40:18;13.60;99.90
28823;DHT22;15961;54.678;9.110;2023-03-23T15:42:45;13.70;99.90
28823;DHT22;15961;54.678;9.110;2023-03-23T15:50:16;13.40;99.90
28823;DHT22;15961;54.678;9.110;2023-03-23T15:52:42;13.40;99.90
28823;DHT22;15961;54.678;9.110;2023-03-23T15:57:46;13.40;99.90
28823;DHT22;15961;54.678;9.110;2023-03-23T16:00:15;13.40;99.90
28823;DHT22;15961;54.678;9.110;2023-03-23T16:02:41;13.40;99.90
28823;DHT22;15961;54.678;9.110;2023-03-23T16:05:10;13.40;99.90
28823;DHT22;15961;54.678;9.110;2023-03-23T16:07:36;13.40;99.90
28823;DHT22;15961;54.678;9.110;2023-03-23T16:10:03;13.10;99.90
28823;DHT22;15961;54.678;9.110;2023-03-23T16:12:31;13.10;99.90
28823;DHT22;15961;54.678;9.110;2023-03-23T16:14:56;13.20;99.90
28823;DHT22;15961;54.678;9.110;2023-03-23T16:17:22;13.20;99.90
28823;DHT22;15961;54.678;9.110;2023-03-23T16:19:48;13.10;99.90
28823;DHT22;15961;54.678;9.110;2023-03-23T16:22:14;13.00;99.90
28823;DHT22;15961;54.678;9.110;2023-03-23T16:24:39;12.80;99.90
28823;DHT22;15961;54.678;9.110;2023-03-23T16:27:05;12.50;99.90
28823;DHT22;15961;54.678;9.110;2023-03-23T16:29:31;12.40;99.90
28823;DHT22;15961;54.678;9.110;2023-03-23T16:31:57;12.00;99.90
28823;DHT22;15961;54.678;9.110;2023-03-23T16:34:22;11.50;99.90
28823;DHT22;15961;54.678;9.110;2023-03-23T16:36:48;11.40;99.90
28823;DHT22;15961;54.678;9.110;2023-03-23T16:39:14;11.10;99.90
28823;DHT22;15961;54.678;9.110;2023-03-23T16:41:43;11.10;99.90
28823;DHT22;15961;54.678;9.110;2023-03-23T16:44:09;11.00;99.90
28823;DHT22;15961;54.678;9.110;2023-03-23T16:46:35;11.10;99.90
28823;DHT22;15961;54.678;9.110;2023-03-23T16:49:00;11.10;99.90
28823;DHT22;15961;54.678;9.110;2023-03-23T16:51:26;11.10;99.90
28823;DHT22;15961;54.678;9.110;2023-03-23T16:53:52;11.10;99.90
28823;DHT22;15961;54.678;9.110;2023-03-23T16:56:17;11.00;99.90
28823;DHT22;15961;54.678;9.110;2023-03-23T16:58:43;10.90;99.90
28823;DHT22;15961;54.678;9.110;2023-03-23T17:01:08;10.70;99.90
28823;DHT22;15961;54.678;9.110;2023-03-23T17:03:34;10.50;99.90
28823;DHT22;15961;54.678;9.110;2023-03-23T17:06:00;10.50;99.90
28823;DHT22;15961;54.678;9.110;2023-03-23T17:08:26;10.40;99.90
28823;DHT22;15961;54.678;9.110;2023-03-23T17:10:52;10.30;99.90
28823;DHT22;15961;54.678;9.110;2023-03-23T17:13:18;10.40;99.90